Time;durP1;ratioP1;P1;durP2;ratioP2;P2;SDS_P1;SDS_P2;PMS_P1;PMS_P2;Temp;Humidity;BMP_temperature;BMP_pressure;BME280_temperature;BME280_humidity;BME280_pressure;Samples;Min_cycle;Max_cycle;Signal;HPM_P1;HPM_P2
2022/03/25 00:01:22;;;;;;;75.93;33.58;;;;;;;;;;5069656;28;20021;-65
2022/03/25 00:03:49;;;;;;;76.72;33.42;;;;;;;;;;5074787;28;20074;-65
2022/03/25 00:06:15;;;;;;;69.45;33.38;;;;;;;;;;5060494;28;20465;-65
2022/03/25 00:08:41;;;;;;;66.45;32.20;;;;;;;;;;5074154;28;20109;-65
2022/03/25 00:11:07;;;;;;;69.95;33.08;;;;;;;;;;5075220;28;20369;-65
2022/03/25 00:13:33;;;;;;;73.07;33.55;;;;;;;;;;5071094;28;20102;-65
2022/03/25 00:15:59;;;;;;;69.15;33.05;;;;;;;;;;5073436;28;20381;-65
2022/03/25 00:18:26;;;;;;;69.90;34.13;;;;;;;;;;5069463;28;20033;-65
2022/03/25 00:20:52;;;;;;;71.07;31.88;;;;;;;;;;5072102;28;20522;-65
2022/03/25 00:23:18;;;;;;;68.47;31.08;;;;;;;;;;5071378;28;20056;-65
2022/03/25 00:25:44;;;;;;;60.85;28.02;;;;;;;;;;5072927;28;20467;-65
2022/03/25 00:28:10;;;;;;;65.28;29.95;;;;;;;;;;5072008;28;20048;-65
2022/03/25 00:30:36;;;;;;;64.53;29.98;;;;;;;;;;5072736;28;20091;-65
2022/03/25 00:33:02;;;;;;;65.45;30.45;;;;;;;;;;5071478;28;20032;-65
2022/03/25 00:35:28;;;;;;;59.67;28.27;;;;;;;;;;5071454;28;20444;-65
2022/03/25 00:37:55;;;;;;;61.03;28.98;;;;;;;;;;5070767;28;20078;-65
2022/03/25 00:40:21;;;;;;;68.95;32.55;;;;;;;;;;5072853;28;20438;-65
2022/03/25 00:42:47;;;;;;;64.88;30.77;;;;;;;;;;5070741;28;20025;-65
2022/03/25 00:45:13;;;;;;;70.50;32.28;;;;;;;;;;5054568;28;20484;-65
2022/03/25 00:47:39;;;;;;;69.13;32.40;;;;;;;;;;5072600;28;20025;-65
2022/03/25 00:50:06;;;;;;;67.55;31.52;;;;;;;;;;5071401;28;20028;-65
2022/03/25 00:52:32;;;;;;;66.93;31.70;;;;;;;;;;5072556;28;20392;-65
2022/03/25 00:54:59;;;;;;;70.55;31.55;;;;;;;;;;5070767;28;20021;-65
2022/03/25 00:57:25;;;;;;;69.35;33.60;;;;;;;;;;5072012;28;20028;-65
2022/03/25 00:59:55;;;;;;;64.80;33.00;;;;;;;;;;5070789;28;20055;-65
2022/03/25 01:02:22;;;;;;;72.28;33.70;;;;;;;;;;5070851;28;20416;-65
2022/03/25 01:04:49;;;;;;;62.50;30.70;;;;;;;;;;5071812;28;20076;-65
2022/03/25 01:07:15;;;;;;;71.15;31.58;;;;;;;;;;5071860;28;20440;-65
2022/03/25 01:09:41;;;;;;;61.97;30.73;;;;;;;;;;5072096;28;20028;-65
2022/03/25 01:12:08;;;;;;;62.60;29.50;;;;;;;;;;5070360;28;20020;-65
2022/03/25 01:14:35;;;;;;;58.20;28.70;;;;;;;;;;5070649;28;20063;-65
2022/03/25 01:17:02;;;;;;;64.63;30.33;;;;;;;;;;5070662;28;20555;-65
2022/03/25 01:19:28;;;;;;;65.30;30.00;;;;;;;;;;5070799;28;20031;-65
2022/03/25 01:21:57;;;;;;;65.60;29.77;;;;;;;;;;5071730;28;20016;-65
2022/03/25 01:24:24;;;;;;;68.22;30.95;;;;;;;;;;5070363;28;20016;-65
2022/03/25 01:26:50;;;;;;;62.97;29.15;;;;;;;;;;5070602;28;20028;-65
2022/03/25 01:29:16;;;;;;;66.53;29.30;;;;;;;;;;5072090;28;20036;-65
2022/03/25 01:31:43;;;;;;;62.70;32.45;;;;;;;;;;5072920;28;20578;-65
2022/03/25 01:34:09;;;;;;;62.25;29.33;;;;;;;;;;5071308;28;20047;-65
2022/03/25 01:36:37;;;;;;;63.55;30.90;;;;;;;;;;5072295;28;20032;-65
2022/03/25 01:39:03;;;;;;;61.97;30.77;;;;;;;;;;5072612;28;20116;-65
2022/03/25 01:41:29;;;;;;;60.22;29.67;;;;;;;;;;5069592;28;20051;-65
2022/03/25 01:43:58;;;;;;;62.72;30.48;;;;;;;;;;5071398;28;20392;-65
2022/03/25 01:46:25;;;;;;;60.03;28.55;;;;;;;;;;5057163;28;20029;-65
2022/03/25 01:48:51;;;;;;;56.63;28.42;;;;;;;;;;5071834;28;20035;-65
2022/03/25 01:51:38;;;;;;;57.83;27.15;;;;;;;;;;5072659;28;20511;-65
2022/03/25 01:54:07;;;;;;;52.08;27.23;;;;;;;;;;5072149;28;20032;-65
2022/03/25 01:56:34;;;;;;;58.60;28.50;;;;;;;;;;5070451;28;20408;-65
2022/03/25 01:59:01;;;;;;;60.90;29.42;;;;;;;;;;5071329;28;20025;-65
2022/03/25 02:01:27;;;;;;;54.88;26.50;;;;;;;;;;5071624;28;20025;-65
2022/03/25 02:03:53;;;;;;;59.75;28.02;;;;;;;;;;5072435;28;20047;-65
2022/03/25 02:06:20;;;;;;;66.35;28.77;;;;;;;;;;5072318;28;20032;-65
2022/03/25 02:08:48;;;;;;;58.03;29.45;;;;;;;;;;5069540;28;20421;-65
2022/03/25 02:11:19;;;;;;;55.40;27.15;;;;;;;;;;5067469;28;20499;-65
2022/03/25 02:13:45;;;;;;;57.92;27.27;;;;;;;;;;5060449;28;20063;-65
2022/03/25 02:16:12;;;;;;;58.40;28.63;;;;;;;;;;5068445;28;20447;-65
2022/03/25 02:18:39;;;;;;;58.95;28.40;;;;;;;;;;5069736;28;20041;-65
2022/03/25 02:21:05;;;;;;;61.85;29.50;;;;;;;;;;5069908;28;20031;-65
2022/03/25 02:23:31;;;;;;;60.53;28.80;;;;;;;;;;5069331;28;20016;-65
2022/03/25 02:25:58;;;;;;;56.60;27.60;;;;;;;;;;5071146;28;20021;-65
2022/03/25 02:28:24;;;;;;;57.60;29.42;;;;;;;;;;5071863;28;20024;-65
2022/03/25 02:30:54;;;;;;;62.83;28.80;;;;;;;;;;5054790;28;20029;-65
2022/03/25 02:33:20;;;;;;;64.68;29.15;;;;;;;;;;5070787;28;20024;-65
2022/03/25 02:35:48;;;;;;;66.05;29.70;;;;;;;;;;5072231;28;20028;-65
2022/03/25 02:38:21;;;;;;;62.90;29.42;;;;;;;;;;5070005;28;20058;-65
2022/03/25 02:40:48;;;;;;;51.95;25.58;;;;;;;;;;5070775;28;20455;-65
2022/03/25 02:43:16;;;;;;;57.90;27.90;;;;;;;;;;5070549;28;20024;-65
2022/03/25 02:45:47;;;;;;;55.97;26.30;;;;;;;;;;5070671;28;20032;-65
2022/03/25 02:48:13;;;;;;;58.30;28.23;;;;;;;;;;5070526;28;20032;-65
2022/03/25 02:50:39;;;;;;;54.72;27.95;;;;;;;;;;5070673;28;20032;-65
2022/03/25 02:53:06;;;;;;;59.58;27.80;;;;;;;;;;5071465;28;20044;-65
2022/03/25 02:55:32;;;;;;;59.80;28.10;;;;;;;;;;5072125;28;20055;-65
2022/03/25 02:57:58;;;;;;;55.40;26.50;;;;;;;;;;5071840;28;20032;-65
2022/03/25 03:00:27;;;;;;;62.95;28.63;;;;;;;;;;5071315;28;20051;-65
2022/03/25 03:02:54;;;;;;;59.15;27.92;;;;;;;;;;5071811;28;20029;-65
2022/03/25 03:05:21;;;;;;;56.42;28.50;;;;;;;;;;5071715;28;20388;-65
2022/03/25 03:07:48;;;;;;;64.28;28.40;;;;;;;;;;5071316;28;20052;-65
2022/03/25 03:10:14;;;;;;;52.72;26.50;;;;;;;;;;5071382;28;20035;-65
2022/03/25 03:12:41;;;;;;;60.47;28.52;;;;;;;;;;5071835;28;20105;-65
2022/03/25 03:15:08;;;;;;;57.58;28.67;;;;;;;;;;5071705;28;20108;-65
2022/03/25 03:17:34;;;;;;;55.53;27.23;;;;;;;;;;5071463;28;20559;-65
2022/03/25 03:20:00;;;;;;;59.22;29.15;;;;;;;;;;5071882;28;20107;-65
2022/03/25 03:22:26;;;;;;;61.03;28.50;;;;;;;;;;5070999;28;20044;-65
2022/03/25 03:24:52;;;;;;;54.78;25.33;;;;;;;;;;5072855;28;20017;-65
2022/03/25 03:27:19;;;;;;;57.50;29.17;;;;;;;;;;5075557;28;20074;-65
2022/03/25 03:29:45;;;;;;;61.55;29.17;;;;;;;;;;5075779;28;20036;-65
2022/03/25 03:32:11;;;;;;;54.17;27.23;;;;;;;;;;5075683;28;20032;-65
2022/03/25 03:34:37;;;;;;;55.13;27.30;;;;;;;;;;5075548;28;20074;-65
2022/03/25 03:37:04;;;;;;;57.47;26.25;;;;;;;;;;5075172;28;20036;-65
2022/03/25 03:39:30;;;;;;;59.67;28.23;;;;;;;;;;5075387;28;20028;-65
2022/03/25 03:41:56;;;;;;;61.17;28.23;;;;;;;;;;5075530;28;20059;-65
2022/03/25 03:44:23;;;;;;;63.60;28.95;;;;;;;;;;5074977;28;20032;-65
2022/03/25 03:46:49;;;;;;;60.45;28.45;;;;;;;;;;5075296;28;20024;-65
2022/03/25 03:49:15;;;;;;;62.35;28.60;;;;;;;;;;5075077;28;20463;-65
2022/03/25 03:51:41;;;;;;;57.72;26.90;;;;;;;;;;5075293;28;20461;-65
2022/03/25 03:54:07;;;;;;;58.05;28.00;;;;;;;;;;5075091;28;20039;-65
2022/03/25 03:56:33;;;;;;;62.03;28.85;;;;;;;;;;5074719;28;20028;-65
2022/03/25 03:59:00;;;;;;;64.07;29.38;;;;;;;;;;5073885;28;20032;-65
2022/03/25 04:01:26;;;;;;;65.05;29.65;;;;;;;;;;5074989;28;20473;-65
2022/03/25 04:03:53;;;;;;;63.40;30.38;;;;;;;;;;5074400;28;20111;-65
2022/03/25 04:06:22;;;;;;;56.75;26.73;;;;;;;;;;5074291;28;20500;-65
2022/03/25 04:08:49;;;;;;;59.97;28.90;;;;;;;;;;5074667;28;20028;-65
2022/03/25 04:11:15;;;;;;;60.78;29.00;;;;;;;;;;5074610;28;20028;-65
2022/03/25 04:13:44;;;;;;;63.33;29.10;;;;;;;;;;5074651;28;20400;-65
2022/03/25 04:16:10;;;;;;;54.10;27.08;;;;;;;;;;5074578;28;20471;-65
2022/03/25 04:18:37;;;;;;;58.83;28.55;;;;;;;;;;5072641;28;20446;-65
2022/03/25 04:21:04;;;;;;;54.28;26.50;;;;;;;;;;5074429;28;20032;-65
2022/03/25 04:23:30;;;;;;;62.55;27.50;;;;;;;;;;5073035;28;20032;-65
2022/03/25 04:25:56;;;;;;;53.45;26.10;;;;;;;;;;5074471;28;20017;-65
2022/03/25 04:28:25;;;;;;;55.42;26.85;;;;;;;;;;5074028;28;20229;-65
2022/03/25 04:30:51;;;;;;;60.53;28.77;;;;;;;;;;5074605;28;20029;-65
2022/03/25 04:33:17;;;;;;;57.45;27.42;;;;;;;;;;5073984;28;20033;-65
2022/03/25 04:35:43;;;;;;;55.00;27.67;;;;;;;;;;5073940;28;20422;-65
2022/03/25 04:38:10;;;;;;;63.25;28.77;;;;;;;;;;5074272;28;20038;-65
2022/03/25 04:40:36;;;;;;;62.10;29.95;;;;;;;;;;5073909;28;20089;-65
2022/03/25 04:43:02;;;;;;;57.03;27.38;;;;;;;;;;5074365;28;20056;-65
2022/03/25 04:45:29;;;;;;;59.17;28.27;;;;;;;;;;5074125;28;20016;-65
2022/03/25 04:47:55;;;;;;;58.45;28.35;;;;;;;;;;5073797;28;20043;-65
2022/03/25 04:50:22;;;;;;;56.78;26.98;;;;;;;;;;5073843;28;20032;-64
2022/03/25 04:52:48;;;;;;;58.53;27.30;;;;;;;;;;5074230;28;20029;-65
2022/03/25 04:55:15;;;;;;;51.28;24.85;;;;;;;;;;5073943;28;20480;-65
2022/03/25 04:57:42;;;;;;;55.38;25.45;;;;;;;;;;5072603;28;20059;-65
2022/03/25 05:00:09;;;;;;;63.95;27.55;;;;;;;;;;5066930;28;20029;-65
2022/03/25 05:02:35;;;;;;;56.58;26.63;;;;;;;;;;5072331;28;20546;-65
2022/03/25 05:05:02;;;;;;;61.30;26.98;;;;;;;;;;5069765;28;20055;-65
2022/03/25 05:07:28;;;;;;;54.70;25.95;;;;;;;;;;5073250;28;20025;-65
2022/03/25 05:09:58;;;;;;;51.28;25.95;;;;;;;;;;5073488;28;20025;-65
2022/03/25 05:12:24;;;;;;;56.58;28.27;;;;;;;;;;5065161;28;20025;-65
2022/03/25 05:14:51;;;;;;;56.55;27.42;;;;;;;;;;5073205;28;20412;-65
2022/03/25 05:17:17;;;;;;;57.78;26.85;;;;;;;;;;5071125;28;20032;-65
2022/03/25 05:19:43;;;;;;;64.25;29.20;;;;;;;;;;5073176;28;20024;-65
2022/03/25 05:22:09;;;;;;;52.15;25.08;;;;;;;;;;5073556;28;20020;-65
2022/03/25 05:24:35;;;;;;;54.53;24.95;;;;;;;;;;5070434;28;20040;-65
2022/03/25 05:27:02;;;;;;;54.47;25.48;;;;;;;;;;5066686;28;20028;-65
2022/03/25 05:29:28;;;;;;;51.58;26.08;;;;;;;;;;5062494;28;20119;-65
2022/03/25 05:31:55;;;;;;;51.08;26.38;;;;;;;;;;5072914;28;20096;-65
2022/03/25 05:34:21;;;;;;;51.90;26.17;;;;;;;;;;5064995;28;20491;-65
2022/03/25 05:36:47;;;;;;;57.03;27.25;;;;;;;;;;5071693;28;20373;-65
2022/03/25 05:39:15;;;;;;;57.72;27.05;;;;;;;;;;5071242;28;20028;-65
2022/03/25 05:41:41;;;;;;;54.33;28.05;;;;;;;;;;5070884;28;20058;-65
2022/03/25 05:44:08;;;;;;;63.30;28.00;;;;;;;;;;5072307;28;20040;-65
2022/03/25 05:46:34;;;;;;;54.88;26.88;;;;;;;;;;5070956;28;20036;-65
2022/03/25 05:49:01;;;;;;;55.20;26.08;;;;;;;;;;5072099;28;20082;-65
2022/03/25 05:51:27;;;;;;;58.55;27.20;;;;;;;;;;5072726;28;20572;-65
2022/03/25 05:53:53;;;;;;;57.42;27.95;;;;;;;;;;5068168;28;20476;-65
2022/03/25 05:56:20;;;;;;;61.92;27.52;;;;;;;;;;5072339;28;20050;-65
2022/03/25 05:58:46;;;;;;;45.17;23.33;;;;;;;;;;5071027;28;20492;-65
2022/03/25 06:01:16;;;;;;;56.53;26.52;;;;;;;;;;5071846;28;20032;-65
2022/03/25 06:03:42;;;;;;;53.58;27.75;;;;;;;;;;5072005;28;20028;-64
2022/03/25 06:06:08;;;;;;;55.03;26.63;;;;;;;;;;5072187;28;20023;-65
2022/03/25 06:08:35;;;;;;;58.22;27.67;;;;;;;;;;5071053;28;20052;-65
2022/03/25 06:11:02;;;;;;;68.85;30.75;;;;;;;;;;5071212;28;20032;-64
2022/03/25 06:13:28;;;;;;;58.67;28.38;;;;;;;;;;5070371;28;20052;-65
2022/03/25 06:15:54;;;;;;;61.08;27.55;;;;;;;;;;5069476;28;20166;-65
2022/03/25 06:18:21;;;;;;;63.60;29.48;;;;;;;;;;5071891;28;20090;-65
2022/03/25 06:20:48;;;;;;;55.53;27.13;;;;;;;;;;5071334;28;20063;-65
2022/03/25 06:23:14;;;;;;;58.72;27.00;;;;;;;;;;5070684;28;20028;-65
2022/03/25 06:25:40;;;;;;;51.72;27.05;;;;;;;;;;5071141;28;20024;-65
2022/03/25 06:28:07;;;;;;;51.83;24.27;;;;;;;;;;5069134;28;20032;-65
2022/03/25 06:30:37;;;;;;;52.33;24.85;;;;;;;;;;5066348;28;20062;-65
2022/03/25 06:33:10;;;;;;;60.58;25.90;;;;;;;;;;5070719;28;20033;-65
2022/03/25 06:35:36;;;;;;;;;;;;;;;;;;5072222;28;20028;-65
2022/03/25 06:38:03;;;;;;;59.65;26.52;;;;;;;;;;5067444;28;19908;-65
2022/03/25 06:40:29;;;;;;;56.35;26.13;;;;;;;;;;5065465;28;20036;-65
2022/03/25 06:42:57;;;;;;;64.05;28.13;;;;;;;;;;5070230;28;20024;-65
2022/03/25 06:45:23;;;;;;;66.78;28.73;;;;;;;;;;5069417;28;20033;-65
2022/03/25 06:47:49;;;;;;;62.33;26.77;;;;;;;;;;5064048;28;20354;-65
2022/03/25 06:50:16;;;;;;;54.58;26.85;;;;;;;;;;5067503;28;20400;-65
2022/03/25 06:52:43;;;;;;;63.67;27.13;;;;;;;;;;5068646;28;20024;-64
2022/03/25 06:55:10;;;;;;;57.67;27.83;;;;;;;;;;5066854;28;20033;-64
2022/03/25 06:57:36;;;;;;;60.88;28.02;;;;;;;;;;5063934;28;20033;-64
2022/03/25 07:00:03;;;;;;;67.20;29.00;;;;;;;;;;5070867;28;20029;-64
2022/03/25 07:02:30;;;;;;;58.83;29.83;;;;;;;;;;5070424;28;20564;-64
2022/03/25 07:04:56;;;;;;;70.55;29.80;;;;;;;;;;5074309;28;20031;-64
2022/03/25 07:07:26;;;;;;;63.50;29.30;;;;;;;;;;5069683;28;20503;-64
2022/03/25 07:09:55;;;;;;;69.45;28.58;;;;;;;;;;5068162;28;20495;-65
2022/03/25 07:12:22;;;;;;;65.10;29.88;;;;;;;;;;5068726;28;20028;-64
2022/03/25 07:14:48;;;;;;;60.45;26.98;;;;;;;;;;5062209;28;20045;-64
2022/03/25 07:17:14;;;;;;;62.72;28.23;;;;;;;;;;5065541;28;20066;-64
2022/03/25 07:19:41;;;;;;;63.20;27.00;;;;;;;;;;5069886;28;20457;-64
2022/03/25 07:22:07;;;;;;;65.53;29.25;;;;;;;;;;5070291;28;20382;-64
2022/03/25 07:24:34;;;;;;;56.65;27.05;;;;;;;;;;5064990;28;20480;-64
2022/03/25 07:27:00;;;;;;;63.28;29.40;;;;;;;;;;5067956;28;20043;-64
2022/03/25 07:29:26;;;;;;;64.88;29.88;;;;;;;;;;5065888;28;20031;-65
2022/03/25 07:31:52;;;;;;;63.60;29.73;;;;;;;;;;5066708;28;20403;-65
2022/03/25 07:34:19;;;;;;;61.72;27.80;;;;;;;;;;5084432;28;20016;-65
2022/03/25 07:36:45;;;;;;;72.05;30.50;;;;;;;;;;5082332;28;20021;-65
2022/03/25 07:39:11;;;;;;;60.53;29.00;;;;;;;;;;5074121;28;20094;-65
2022/03/25 07:41:37;;;;;;;65.78;30.02;;;;;;;;;;5078781;28;20527;-65
2022/03/25 07:44:03;;;;;;;74.40;29.33;;;;;;;;;;5074544;28;20056;-65
2022/03/25 07:46:29;;;;;;;67.82;28.92;;;;;;;;;;5081708;28;20042;-66
2022/03/25 07:48:55;;;;;;;73.47;31.65;;;;;;;;;;5079126;28;20097;-66
2022/03/25 07:51:21;;;;;;;68.40;31.83;;;;;;;;;;5076321;28;20067;-66
2022/03/25 07:53:48;;;;;;;68.18;29.95;;;;;;;;;;5067979;28;20028;-66
2022/03/25 07:56:14;;;;;;;69.63;29.80;;;;;;;;;;5072149;28;20492;-66
2022/03/25 07:58:40;;;;;;;71.40;32.63;;;;;;;;;;5083005;28;20028;-66
2022/03/25 08:01:06;;;;;;;66.07;30.75;;;;;;;;;;5075319;28;20131;-67
2022/03/25 08:03:32;;;;;;;75.22;33.70;;;;;;;;;;5079284;28;20025;-67
2022/03/25 08:05:58;;;;;;;71.13;32.42;;;;;;;;;;5074039;28;20019;-67
2022/03/25 08:08:25;;;;;;;80.78;33.35;;;;;;;;;;5071504;28;21059;-67
2022/03/25 08:10:56;;;;;;;70.30;32.42;;;;;;;;;;5072272;28;20047;-75
2022/03/25 08:13:25;;;;;;;80.00;33.97;;;;;;;;;;5074474;28;20045;-67
2022/03/25 08:15:51;;;;;;;74.25;36.38;;;;;;;;;;5068379;28;20542;-67
2022/03/25 08:18:17;;;;;;;91.13;38.88;;;;;;;;;;5081945;28;20074;-67
2022/03/25 08:20:45;;;;;;;93.38;39.88;;;;;;;;;;5089490;28;20348;-67
2022/03/25 08:28:48;;;;;;;103.10;44.10;;;;;;;;;;5084963;28;20024;-67
2022/03/25 08:31:15;;;;;;;99.85;44.05;;;;;;;;;;5079846;28;20032;-67
2022/03/25 08:33:42;;;;;;;108.80;46.67;;;;;;;;;;5089026;28;20028;-67
2022/03/25 08:36:12;;;;;;;107.90;45.65;;;;;;;;;;5082901;28;20408;-67
2022/03/25 08:38:38;;;;;;;108.03;45.90;;;;;;;;;;5082143;28;20084;-67
2022/03/25 08:41:04;;;;;;;107.47;48.72;;;;;;;;;;5078101;28;20471;-67
2022/03/25 08:43:31;;;;;;;119.80;51.22;;;;;;;;;;5079639;28;20484;-67
2022/03/25 08:45:57;;;;;;;113.28;47.05;;;;;;;;;;5079420;28;20024;-67
2022/03/25 08:48:23;;;;;;;105.60;48.67;;;;;;;;;;5067226;28;20066;-67
2022/03/25 08:50:49;;;;;;;102.97;46.80;;;;;;;;;;5076267;28;20108;-67
2022/03/25 08:53:17;;;;;;;102.30;45.60;;;;;;;;;;5076385;28;20511;-67
2022/03/25 08:55:43;;;;;;;106.15;45.72;;;;;;;;;;5071704;28;20032;-67
2022/03/25 08:58:09;;;;;;;117.53;46.95;;;;;;;;;;5074154;28;20028;-67
2022/03/25 09:00:35;;;;;;;107.28;47.42;;;;;;;;;;5074301;28;20025;-67
2022/03/25 09:03:01;;;;;;;104.68;46.55;;;;;;;;;;5071506;28;20043;-67
2022/03/25 09:05:28;;;;;;;100.47;45.75;;;;;;;;;;5065366;28;20475;-67
2022/03/25 09:07:54;;;;;;;112.75;49.40;;;;;;;;;;5064816;28;20032;-67
2022/03/25 09:10:20;;;;;;;96.43;44.20;;;;;;;;;;5066947;28;20040;-68
2022/03/25 09:12:46;;;;;;;104.35;44.67;;;;;;;;;;5070192;28;20493;-68
2022/03/25 09:15:13;;;;;;;96.28;42.95;;;;;;;;;;5077988;28;20037;-68
2022/03/25 09:17:40;;;;;;;100.13;44.05;;;;;;;;;;5075812;28;20442;-68
2022/03/25 09:20:06;;;;;;;91.00;44.45;;;;;;;;;;5077637;28;20111;-68
2022/03/25 09:22:34;;;;;;;93.80;42.97;;;;;;;;;;5070093;28;20031;-68
2022/03/25 09:25:01;;;;;;;91.43;42.55;;;;;;;;;;5072000;28;20032;-67
2022/03/25 09:27:27;;;;;;;98.22;41.97;;;;;;;;;;5072041;28;20408;-67
2022/03/25 09:29:53;;;;;;;88.38;43.42;;;;;;;;;;5067420;28;20047;-67
2022/03/25 09:32:19;;;;;;;90.80;42.63;;;;;;;;;;5067089;28;20078;-67
2022/03/25 09:37:30;;;;;;;92.70;44.03;;;;;;;;;;5073623;28;20036;-68
2022/03/25 09:39:57;;;;;;;85.00;39.60;;;;;;;;;;5068374;28;20039;-67
2022/03/25 09:42:23;;;;;;;90.00;40.25;;;;;;;;;;5075854;28;20032;-68
2022/03/25 09:44:49;;;;;;;88.88;40.65;;;;;;;;;;5076977;28;20078;-67
2022/03/25 09:47:17;;;;;;;82.85;40.63;;;;;;;;;;5080700;28;20036;-67
2022/03/25 09:49:44;;;;;;;81.95;37.20;;;;;;;;;;5075037;28;20036;-67
2022/03/25 09:52:10;;;;;;;74.43;35.92;;;;;;;;;;5073501;28;20032;-68
2022/03/25 09:54:36;;;;;;;74.63;33.97;;;;;;;;;;5067844;28;20037;-68
2022/03/25 09:57:03;;;;;;;78.70;36.30;;;;;;;;;;5076454;28;20032;-67
2022/03/25 09:59:29;;;;;;;69.65;35.42;;;;;;;;;;5074412;28;20488;-67
2022/03/25 10:01:55;;;;;;;83.35;37.22;;;;;;;;;;5070939;28;20268;-67
2022/03/25 10:04:49;;;;;;;78.93;35.63;;;;;;;;;;5070753;28;20031;-67
2022/03/25 10:07:21;;;;;;;73.10;36.47;;;;;;;;;;5069569;28;20037;-67
2022/03/25 10:10:06;;;;;;;84.90;36.97;;;;;;;;;;5072703;28;20369;-67
2022/03/25 10:12:32;;;;;;;78.40;33.90;;;;;;;;;;5070471;28;20071;-67
2022/03/25 10:15:14;;;;;;;74.97;34.15;;;;;;;;;;5073244;28;20036;-67
2022/03/25 10:18:04;;;;;;;80.55;35.72;;;;;;;;;;5072513;28;20442;-67
2022/03/25 10:20:41;;;;;;;75.03;33.95;;;;;;;;;;5067652;28;20040;-67
2022/03/25 10:23:11;;;;;;;69.70;34.20;;;;;;;;;;5071341;28;20074;-67
2022/03/25 10:25:51;;;;;;;73.28;34.17;;;;;;;;;;5072586;28;20032;-67
2022/03/25 10:28:26;;;;;;;76.53;34.25;;;;;;;;;;5066144;28;20039;-67
2022/03/25 10:30:57;;;;;;;67.88;32.28;;;;;;;;;;5068906;28;20389;-67
2022/03/25 10:33:34;;;;;;;69.15;32.95;;;;;;;;;;5068681;28;20708;-67
2022/03/25 10:36:08;;;;;;;74.50;33.50;;;;;;;;;;5063495;28;20064;-67
2022/03/25 10:38:45;;;;;;;78.55;34.20;;;;;;;;;;5068766;28;20125;-67
2022/03/25 10:41:13;;;;;;;74.47;35.28;;;;;;;;;;5064538;28;20420;-67
2022/03/25 10:43:48;;;;;;;76.30;34.28;;;;;;;;;;5069840;28;20025;-68
2022/03/25 10:46:30;;;;;;;74.85;34.65;;;;;;;;;;5064442;28;20063;-67
2022/03/25 10:48:57;;;;;;;78.60;35.25;;;;;;;;;;5067884;28;20028;-67
2022/03/25 10:51:23;;;;;;;75.00;34.83;;;;;;;;;;5070639;28;20432;-67
2022/03/25 10:53:55;;;;;;;77.15;36.45;;;;;;;;;;5073367;28;20040;-67
2022/03/25 10:56:22;;;;;;;81.20;32.60;;;;;;;;;;5069494;28;20504;-67
2022/03/25 10:58:56;;;;;;;80.05;33.00;;;;;;;;;;5066033;28;20028;-67
2022/03/25 11:01:22;;;;;;;68.68;33.63;;;;;;;;;;5070122;28;20119;-67
2022/03/25 11:03:49;;;;;;;69.25;33.25;;;;;;;;;;5068584;28;20112;-67
2022/03/25 11:06:17;;;;;;;79.53;35.47;;;;;;;;;;5068555;28;20504;-68
2022/03/25 11:08:43;;;;;;;73.43;36.22;;;;;;;;;;5076203;28;20101;-68
2022/03/25 11:11:10;;;;;;;77.88;36.65;;;;;;;;;;5073280;28;20056;-68
2022/03/25 11:13:36;;;;;;;74.13;36.03;;;;;;;;;;5069839;28;20090;-67
2022/03/25 11:16:02;;;;;;;74.38;35.08;;;;;;;;;;5074851;28;20404;-68
2022/03/25 11:18:29;;;;;;;75.80;35.13;;;;;;;;;;5075793;28;20036;-68
2022/03/25 11:21:00;;;;;;;81.75;38.08;;;;;;;;;;5077363;28;20024;-68
2022/03/25 11:23:30;;;;;;;71.78;35.72;;;;;;;;;;5080683;28;20037;-68
2022/03/25 11:26:01;;;;;;;76.50;36.65;;;;;;;;;;5077452;28;20032;-68
2022/03/25 11:28:32;;;;;;;72.72;35.25;;;;;;;;;;5078215;28;20476;-68
2022/03/25 11:30:59;;;;;;;78.63;36.15;;;;;;;;;;5078420;28;20024;-68
2022/03/25 11:33:25;;;;;;;79.40;38.28;;;;;;;;;;5078426;28;20028;-67
2022/03/25 11:36:13;;;;;;;80.55;33.50;;;;;;;;;;5073819;28;20040;-67
2022/03/25 11:38:39;;;;;;;76.10;35.85;;;;;;;;;;5074524;28;20488;-67
2022/03/25 11:41:21;;;;;;;80.30;37.33;;;;;;;;;;5077955;28;20405;-68
2022/03/25 11:44:07;;;;;;;82.88;37.05;;;;;;;;;;5075562;28;20082;-67
2022/03/25 11:46:34;;;;;;;81.45;36.28;;;;;;;;;;5082807;28;20017;-67
2022/03/25 11:49:17;;;;;;;73.45;34.92;;;;;;;;;;5083839;28;20028;-67
2022/03/25 11:51:44;;;;;;;74.38;35.88;;;;;;;;;;5069473;28;20108;-68
2022/03/25 11:54:29;;;;;;;79.22;36.20;;;;;;;;;;5075553;28;20036;-68
2022/03/25 11:56:56;;;;;;;79.13;37.42;;;;;;;;;;5066860;28;20037;-68
2022/03/25 11:59:22;;;;;;;77.35;34.28;;;;;;;;;;5074455;28;20049;-68
2022/03/25 12:01:49;;;;;;;76.13;35.75;;;;;;;;;;5075215;28;20035;-68
2022/03/25 12:04:33;;;;;;;75.78;35.95;;;;;;;;;;5071566;28;20016;-68
2022/03/25 12:07:02;;;;;;;72.85;35.38;;;;;;;;;;5077066;28;20028;-68
2022/03/25 12:09:35;;;;;;;73.40;34.67;;;;;;;;;;5075808;28;20029;-67
2022/03/25 12:12:01;;;;;;;80.28;35.28;;;;;;;;;;5071651;28;20013;-68
2022/03/25 12:14:31;;;;;;;74.28;34.00;;;;;;;;;;5071924;28;20048;-68
2022/03/25 12:17:02;;;;;;;77.60;34.90;;;;;;;;;;5072523;28;20396;-68
2022/03/25 12:19:28;;;;;;;69.57;33.10;;;;;;;;;;5072015;28;20025;-68
2022/03/25 12:21:58;;;;;;;83.50;34.33;;;;;;;;;;5070824;28;20435;-68
2022/03/25 12:24:25;;;;;;;76.82;33.67;;;;;;;;;;5072474;28;20457;-68
2022/03/25 12:27:02;;;;;;;69.10;33.33;;;;;;;;;;5074046;28;20499;-68
2022/03/25 12:29:38;;;;;;;77.70;34.15;;;;;;;;;;5076632;28;20025;-68
2022/03/25 12:32:06;;;;;;;76.88;36.50;;;;;;;;;;5071008;28;20480;-68
2022/03/25 12:34:50;;;;;;;73.90;34.33;;;;;;;;;;5073550;28;20392;-68
2022/03/25 12:37:27;;;;;;;79.03;34.97;;;;;;;;;;5076208;28;20505;-68
2022/03/25 12:39:53;;;;;;;67.90;32.83;;;;;;;;;;5083648;28;20028;-68
2022/03/25 12:42:19;;;;;;;78.63;34.85;;;;;;;;;;5075397;28;20403;-68
2022/03/25 12:44:53;;;;;;;78.35;35.17;;;;;;;;;;5084683;28;20387;-68
2022/03/25 12:47:28;;;;;;;76.60;35.17;;;;;;;;;;5072983;28;20503;-67
2022/03/25 12:49:58;;;;;;;77.90;35.00;;;;;;;;;;5083252;28;20050;-68
2022/03/25 12:52:25;;;;;;;75.38;33.70;;;;;;;;;;5081700;28;20471;-67
2022/03/25 12:54:51;;;;;;;78.00;35.08;;;;;;;;;;5075956;28;20056;-67
2022/03/25 12:57:17;;;;;;;84.22;36.65;;;;;;;;;;5073962;28;20085;-67
2022/03/25 12:59:53;;;;;;;81.93;36.50;;;;;;;;;;5072477;28;20024;-67
2022/03/25 13:02:19;;;;;;;79.55;36.05;;;;;;;;;;5065584;28;20070;-68
2022/03/25 13:04:45;;;;;;;74.45;34.53;;;;;;;;;;5068079;28;20032;-68
2022/03/25 13:07:13;;;;;;;73.03;32.95;;;;;;;;;;5069914;28;20044;-67
2022/03/25 13:09:55;;;;;;;87.10;34.55;;;;;;;;;;5078475;28;20020;-68
2022/03/25 13:12:28;;;;;;;69.32;34.42;;;;;;;;;;5075026;28;20115;-68
2022/03/25 13:14:55;;;;;;;77.10;34.85;;;;;;;;;;5074145;28;20459;-68
2022/03/25 13:17:35;;;;;;;73.75;33.60;;;;;;;;;;5074634;28;20059;-68
2022/03/25 13:20:01;;;;;;;86.35;34.72;;;;;;;;;;5070160;28;20044;-68
2022/03/25 13:22:27;;;;;;;73.72;34.15;;;;;;;;;;5073080;28;20029;-68
2022/03/25 13:24:59;;;;;;;74.72;34.63;;;;;;;;;;5064683;28;20021;-68
2022/03/25 13:27:26;;;;;;;67.43;32.60;;;;;;;;;;5065620;28;20032;-68
2022/03/25 13:29:53;;;;;;;78.13;33.40;;;;;;;;;;5075132;28;20650;-68
2022/03/25 13:32:33;;;;;;;68.78;33.30;;;;;;;;;;5069335;28;20033;-68
2022/03/25 13:35:10;;;;;;;74.10;33.88;;;;;;;;;;5084167;28;20086;-67
2022/03/25 13:37:36;;;;;;;69.57;31.80;;;;;;;;;;5069825;28;20063;-67
2022/03/25 13:40:03;;;;;;;68.85;32.28;;;;;;;;;;5074737;28;20078;-69
2022/03/25 13:42:33;;;;;;;66.50;32.85;;;;;;;;;;5069178;28;20111;-67
2022/03/25 13:45:09;;;;;;;75.22;33.00;;;;;;;;;;5070245;28;20012;-68
2022/03/25 13:47:35;;;;;;;68.32;33.00;;;;;;;;;;5077377;28;20031;-73
2022/03/25 13:50:15;;;;;;;73.93;32.42;;;;;;;;;;5072234;28;20024;-69
2022/03/25 13:52:42;;;;;;;75.78;33.30;;;;;;;;;;5071156;28;20035;-68
2022/03/25 13:55:17;;;;;;;72.43;31.83;;;;;;;;;;5069349;28;20044;-68
2022/03/25 13:57:57;;;;;;;66.97;33.03;;;;;;;;;;5072666;28;20028;-68
2022/03/25 14:00:30;;;;;;;70.50;31.33;;;;;;;;;;5069268;28;20393;-74
2022/03/25 14:02:56;;;;;;;74.60;33.45;;;;;;;;;;5067208;28;20027;-75
2022/03/25 14:05:26;;;;;;;73.00;34.10;;;;;;;;;;5070199;28;20147;-72
2022/03/25 14:07:57;;;;;;;77.15;33.88;;;;;;;;;;5065636;28;20036;-73
2022/03/25 14:10:24;;;;;;;71.10;33.25;;;;;;;;;;5069697;28;20044;-66
2022/03/25 14:12:57;;;;;;;79.82;34.22;;;;;;;;;;5070563;28;20075;-78
2022/03/25 14:15:27;;;;;;;70.57;32.35;;;;;;;;;;5068452;28;20430;-64
2022/03/25 14:17:54;;;;;;;68.25;33.70;;;;;;;;;;5069447;28;20078;-64
2022/03/25 14:20:22;;;;;;;76.38;32.92;;;;;;;;;;5074184;28;20067;-63
2022/03/25 14:22:52;;;;;;;79.05;34.40;;;;;;;;;;5073382;28;20476;-64
2022/03/25 14:25:20;;;;;;;69.20;32.20;;;;;;;;;;5071467;28;20028;-64
2022/03/25 14:27:48;;;;;;;82.28;35.17;;;;;;;;;;5071446;28;20151;-64
2022/03/25 14:30:14;;;;;;;76.63;34.17;;;;;;;;;;5068463;28;20021;-64